Beach, Georgia
Current Conditions -  °F | °C
As of 3:53 AM on Sunday 23 Nov 2014 (Local Time) from KAMG Reporting Station
Light Rain Light Rain  
Wind Chill: 60°   Ceiling: 900
Heat Index: 60°   Visibility: 3mi
Dew Point: 59°   Wind: 6mph
Humidity: 96%   Direction: 80°E
Pressure: 30.05"   Gusts: NA
Location:  31.4253°N, 82.5972°W
Report Text: KAMG 230853Z AUTO 08005KT 3SM -RA BR SCT005 BKN009 OVC028 16/15 A3005 RMK AO2 CIG 007V012 SLP173 P0015 60059 T01560150 58030
Loading
Personal Weather Stations






























Interactive Weather Map New forecast layout! Learn more

10-Day Weather Forecast

Advertisements
Track Severe Weather on mobile